LFMK/CCF METAR and TAF weather

Enter ICAO airport designator
Station Type Date Time Source
LFMK METAR 2024/05/29 00:00 UTC NOAA

LFMK 290000Z AUTO 26004KT 220V290 CAVOK 17/12 Q1019


Station Type Date Time Source
LFMK Decoded METAR 2024/05/29 00:00 UTC NOAA

Carcassonne, France (LFMK) 43-13N 002-19E 130M
May 28, 2024 - 08:00 PM EDT / 2024.05.29 0000 UTC
Wind: from the W (260 degrees) at 5 MPH (4 KT) (direction variable):0
Visibility: greater than 7 mile(s):0
Temperature: 62 F (17 C)
Dew Point: 53 F (12 C)
Relative Humidity: 72%
Pressure (altimeter): 30.09 in. Hg (1019 hPa)
ob: LFMK 290000Z AUTO 26004KT 220V290 CAVOK 17/12 Q1019
cycle: 0

Station Type Date Time Source
LFMK TAF 2024/05/28 18:13 UTC NOAA